sensor_id;sensor_type;location;lat;lon;timestamp;pressure;altitude;pressure_sealevel;temperature;humidity
19112;BME280;9688;51.906;8.376;2024-02-26T00:00:40;99239.56;;;5.78;100.00
19112;BME280;9688;51.906;8.376;2024-02-26T00:03:26;99238.59;;;5.80;100.00
19112;BME280;9688;51.906;8.376;2024-02-26T00:06:11;99245.47;;;5.83;100.00
19112;BME280;9688;51.906;8.376;2024-02-26T00:08:56;99241.88;;;5.86;100.00
19112;BME280;9688;51.906;8.376;2024-02-26T00:11:43;99244.38;;;5.89;100.00
19112;BME280;9688;51.906;8.376;2024-02-26T00:14:28;99243.38;;;5.91;100.00
19112;BME280;9688;51.906;8.376;2024-02-26T00:17:13;99236.41;;;5.90;100.00
19112;BME280;9688;51.906;8.376;2024-02-26T00:19:58;99239.97;;;5.89;100.00
19112;BME280;9688;51.906;8.376;2024-02-26T00:22:44;99240.81;;;5.90;100.00
19112;BME280;9688;51.906;8.376;2024-02-26T00:25:30;99243.38;;;5.91;100.00
19112;BME280;9688;51.906;8.376;2024-02-26T00:28:16;99249.38;;;5.95;100.00
19112;BME280;9688;51.906;8.376;2024-02-26T00:31:03;99240.63;;;5.96;100.00
19112;BME280;9688;51.906;8.376;2024-02-26T00:33:49;99242.19;;;6.00;100.00
19112;BME280;9688;51.906;8.376;2024-02-26T00:36:35;99245.72;;;5.99;100.00
19112;BME280;9688;51.906;8.376;2024-02-26T00:39:20;99249.13;;;6.01;100.00
19112;BME280;9688;51.906;8.376;2024-02-26T00:42:05;99243.03;;;6.00;100.00
19112;BME280;9688;51.906;8.376;2024-02-26T00:44:52;99232.19;;;5.88;100.00
19112;BME280;9688;51.906;8.376;2024-02-26T00:47:38;99241.19;;;5.80;100.00
19112;BME280;9688;51.906;8.376;2024-02-26T00:50:25;99236.00;;;5.79;100.00
19112;BME280;9688;51.906;8.376;2024-02-26T00:53:10;99236.94;;;5.78;100.00
19112;BME280;9688;51.906;8.376;2024-02-26T00:55:55;99233.50;;;5.76;100.00
19112;BME280;9688;51.906;8.376;2024-02-26T00:58:40;99227.38;;;5.77;100.00
19112;BME280;9688;51.906;8.376;2024-02-26T01:01:27;99223.03;;;5.76;100.00
19112;BME280;9688;51.906;8.376;2024-02-26T01:04:12;99224.88;;;5.74;100.00
19112;BME280;9688;51.906;8.376;2024-02-26T01:06:57;99224.88;;;5.74;100.00
19112;BME280;9688;51.906;8.376;2024-02-26T01:09:42;99217.88;;;5.74;100.00
19112;BME280;9688;51.906;8.376;2024-02-26T01:12:27;99217.00;;;5.74;100.00
19112;BME280;9688;51.906;8.376;2024-02-26T01:15:13;99213.47;;;5.75;100.00
19112;BME280;9688;51.906;8.376;2024-02-26T01:17:59;99215.28;;;5.73;100.00
19112;BME280;9688;51.906;8.376;2024-02-26T01:20:45;99208.28;;;5.73;100.00
19112;BME280;9688;51.906;8.376;2024-02-26T01:23:30;99203.81;;;5.75;100.00
19112;BME280;9688;51.906;8.376;2024-02-26T01:26:15;99203.78;;;5.77;100.00
19112;BME280;9688;51.906;8.376;2024-02-26T01:29:01;99207.16;;;5.79;100.00
19112;BME280;9688;51.906;8.376;2024-02-26T01:31:46;99210.59;;;5.81;100.00
19112;BME280;9688;51.906;8.376;2024-02-26T01:34:32;99195.66;;;5.83;100.00
19112;BME280;9688;51.906;8.376;2024-02-26T01:37:18;99189.34;;;5.87;100.00
19112;BME280;9688;51.906;8.376;2024-02-26T01:40:04;99183.97;;;5.90;100.00
19112;BME280;9688;51.906;8.376;2024-02-26T01:42:52;99189.13;;;5.93;100.00
19112;BME280;9688;51.906;8.376;2024-02-26T01:45:38;99193.44;;;5.94;100.00
19112;BME280;9688;51.906;8.376;2024-02-26T01:48:23;99180.19;;;5.97;100.00
19112;BME280;9688;51.906;8.376;2024-02-26T01:51:12;99185.31;;;6.00;100.00
19112;BME280;9688;51.906;8.376;2024-02-26T01:53:59;99180.06;;;6.00;100.00
19112;BME280;9688;51.906;8.376;2024-02-26T01:56:51;99180.03;;;6.02;100.00
19112;BME280;9688;51.906;8.376;2024-02-26T01:59:37;99188.53;;;6.07;100.00
19112;BME280;9688;51.906;8.376;2024-02-26T02:02:23;99186.56;;;6.12;100.00
19112;BME280;9688;51.906;8.376;2024-02-26T02:05:09;99197.66;;;6.19;100.00
19112;BME280;9688;51.906;8.376;2024-02-26T02:07:57;99195.72;;;6.22;100.00
19112;BME280;9688;51.906;8.376;2024-02-26T02:10:42;99192.00;;;6.28;99.46
19112;BME280;9688;51.906;8.376;2024-02-26T02:13:28;99196.97;;;6.34;99.56
19112;BME280;9688;51.906;8.376;2024-02-26T02:16:13;99195.84;;;6.40;99.71
19112;BME280;9688;51.906;8.376;2024-02-26T02:18:59;99191.31;;;6.43;99.40
19112;BME280;9688;51.906;8.376;2024-02-26T02:21:46;99189.41;;;6.47;98.79
19112;BME280;9688;51.906;8.376;2024-02-26T02:24:31;99194.47;;;6.52;98.84
19112;BME280;9688;51.906;8.376;2024-02-26T02:27:17;99200.22;;;6.60;98.68
19112;BME280;9688;51.906;8.376;2024-02-26T02:30:03;99201.56;;;6.68;98.15
19112;BME280;9688;51.906;8.376;2024-02-26T02:32:49;99201.22;;;6.76;97.80
19112;BME280;9688;51.906;8.376;2024-02-26T02:35:34;99203.56;;;6.82;98.04
19112;BME280;9688;51.906;8.376;2024-02-26T02:38:21;99209.38;;;6.89;97.24
19112;BME280;9688;51.906;8.376;2024-02-26T02:41:08;99212.59;;;6.96;97.46
19112;BME280;9688;51.906;8.376;2024-02-26T02:43:53;99205.19;;;7.04;96.77
19112;BME280;9688;51.906;8.376;2024-02-26T02:46:38;99202.28;;;7.10;96.72
19112;BME280;9688;51.906;8.376;2024-02-26T02:49:24;99200.41;;;7.12;96.17
19112;BME280;9688;51.906;8.376;2024-02-26T02:52:09;99209.88;;;7.16;96.25
19112;BME280;9688;51.906;8.376;2024-02-26T02:54:55;99209.72;;;7.19;96.07
19112;BME280;9688;51.906;8.376;2024-02-26T02:57:40;99208.78;;;7.20;95.66
19112;BME280;9688;51.906;8.376;2024-02-26T03:00:26;99214.00;;;7.22;95.44
19112;BME280;9688;51.906;8.376;2024-02-26T03:03:12;99210.50;;;7.21;95.44
19112;BME280;9688;51.906;8.376;2024-02-26T03:05:57;99209.44;;;7.25;95.46
19112;BME280;9688;51.906;8.376;2024-02-26T03:08:42;99212.84;;;7.27;95.30
19112;BME280;9688;51.906;8.376;2024-02-26T03:11:30;99215.47;;;7.27;95.03
19112;BME280;9688;51.906;8.376;2024-02-26T03:14:15;99218.03;;;7.29;95.02
19112;BME280;9688;51.906;8.376;2024-02-26T03:17:00;99214.38;;;7.31;95.00
19112;BME280;9688;51.906;8.376;2024-02-26T03:19:45;99219.63;;;7.31;94.68
19112;BME280;9688;51.906;8.376;2024-02-26T03:22:31;99221.28;;;7.34;94.77
19112;BME280;9688;51.906;8.376;2024-02-26T03:25:16;99216.81;;;7.36;94.80
19112;BME280;9688;51.906;8.376;2024-02-26T03:28:03;99223.75;;;7.37;94.43
19112;BME280;9688;51.906;8.376;2024-02-26T03:30:48;99222.75;;;7.40;94.34
19112;BME280;9688;51.906;8.376;2024-02-26T03:33:34;99221.75;;;7.42;94.13
19112;BME280;9688;51.906;8.376;2024-02-26T03:36:19;99237.53;;;7.42;94.02
19112;BME280;9688;51.906;8.376;2024-02-26T03:39:05;99228.75;;;7.43;94.16
19112;BME280;9688;51.906;8.376;2024-02-26T03:41:51;99229.50;;;7.45;93.98
19112;BME280;9688;51.906;8.376;2024-02-26T03:44:38;99231.13;;;7.48;93.71
19112;BME280;9688;51.906;8.376;2024-02-26T03:47:23;99238.88;;;7.51;93.71
19112;BME280;9688;51.906;8.376;2024-02-26T03:50:08;99241.50;;;7.51;93.26
19112;BME280;9688;51.906;8.376;2024-02-26T03:52:53;99253.66;;;7.53;93.58
19112;BME280;9688;51.906;8.376;2024-02-26T03:55:39;99248.31;;;7.55;93.42
19112;BME280;9688;51.906;8.376;2024-02-26T03:58:25;99250.03;;;7.56;93.33
19112;BME280;9688;51.906;8.376;2024-02-26T04:01:12;99250.81;;;7.58;93.38
19112;BME280;9688;51.906;8.376;2024-02-26T04:03:57;99253.38;;;7.59;93.63
19112;BME280;9688;51.906;8.376;2024-02-26T04:06:44;99252.44;;;7.60;93.38
19112;BME280;9688;51.906;8.376;2024-02-26T04:09:30;99250.66;;;7.61;93.70
19112;BME280;9688;51.906;8.376;2024-02-26T04:12:16;99253.28;;;7.61;93.70
19112;BME280;9688;51.906;8.376;2024-02-26T04:15:02;99251.50;;;7.62;93.72
19112;BME280;9688;51.906;8.376;2024-02-26T04:17:50;99247.13;;;7.62;93.29
19112;BME280;9688;51.906;8.376;2024-02-26T04:20:35;99255.00;;;7.62;92.87
19112;BME280;9688;51.906;8.376;2024-02-26T04:23:20;99253.06;;;7.66;92.99
19112;BME280;9688;51.906;8.376;2024-02-26T04:26:05;99251.28;;;7.66;92.71
19112;BME280;9688;51.906;8.376;2024-02-26T04:28:50;99264.28;;;7.69;92.74
19112;BME280;9688;51.906;8.376;2024-02-26T04:31:37;99259.72;;;7.73;92.58
19112;BME280;9688;51.906;8.376;2024-02-26T04:34:25;99265.75;;;7.75;92.44
19112;BME280;9688;51.906;8.376;2024-02-26T04:37:10;99266.75;;;7.72;92.01
19112;BME280;9688;51.906;8.376;2024-02-26T04:39:55;99263.28;;;7.72;92.02
19112;BME280;9688;51.906;8.376;2024-02-26T04:42:41;99266.84;;;7.71;91.65
19112;BME280;9688;51.906;8.376;2024-02-26T04:45:26;99269.53;;;7.69;91.29
19112;BME280;9688;51.906;8.376;2024-02-26T04:48:11;99264.38;;;7.68;91.68
19112;BME280;9688;51.906;8.376;2024-02-26T04:50:58;99270.38;;;7.70;91.43
19112;BME280;9688;51.906;8.376;2024-02-26T04:53:43;99280.84;;;7.71;91.21
19112;BME280;9688;51.906;8.376;2024-02-26T04:56:28;99279.00;;;7.73;91.11
19112;BME280;9688;51.906;8.376;2024-02-26T04:59:14;99291.22;;;7.74;91.08
19112;BME280;9688;51.906;8.376;2024-02-26T05:01:59;99286.75;;;7.76;91.18
19112;BME280;9688;51.906;8.376;2024-02-26T05:04:44;99298.03;;;7.78;91.08
19112;BME280;9688;51.906;8.376;2024-02-26T05:07:31;99290.91;;;7.80;91.13
19112;BME280;9688;51.906;8.376;2024-02-26T05:10:17;99280.09;;;7.87;90.91
19112;BME280;9688;51.906;8.376;2024-02-26T05:13:02;99287.84;;;7.90;90.54
19112;BME280;9688;51.906;8.376;2024-02-26T05:15:48;99288.88;;;7.87;91.01
19112;BME280;9688;51.906;8.376;2024-02-26T05:18:36;99288.88;;;7.87;91.13
19112;BME280;9688;51.906;8.376;2024-02-26T05:21:21;99289.78;;;7.86;91.40
19112;BME280;9688;51.906;8.376;2024-02-26T05:24:08;99294.88;;;7.89;90.79
19112;BME280;9688;51.906;8.376;2024-02-26T05:26:53;99293.97;;;7.90;90.95
19112;BME280;9688;51.906;8.376;2024-02-26T05:29:39;99286.97;;;7.89;90.78
19112;BME280;9688;51.906;8.376;2024-02-26T05:32:25;99286.22;;;7.87;90.83
19112;BME280;9688;51.906;8.376;2024-02-26T05:35:10;99291.50;;;7.87;90.85
19112;BME280;9688;51.906;8.376;2024-02-26T05:37:55;99288.06;;;7.85;90.66
19112;BME280;9688;51.906;8.376;2024-02-26T05:40:42;99286.44;;;7.82;90.66
19112;BME280;9688;51.906;8.376;2024-02-26T05:43:27;99285.66;;;7.80;90.73
19112;BME280;9688;51.906;8.376;2024-02-26T05:46:13;99291.22;;;7.74;90.63
19112;BME280;9688;51.906;8.376;2024-02-26T05:49:01;99290.69;;;7.68;90.95
19112;BME280;9688;51.906;8.376;2024-02-26T05:51:46;99292.66;;;7.63;90.84
19112;BME280;9688;51.906;8.376;2024-02-26T05:54:32;99299.78;;;7.60;91.18
19112;BME280;9688;51.906;8.376;2024-02-26T05:57:18;99295.81;;;7.52;91.45
19112;BME280;9688;51.906;8.376;2024-02-26T06:00:05;99299.50;;;7.48;91.87
19112;BME280;9688;51.906;8.376;2024-02-26T06:02:50;99298.16;;;7.39;92.15
19112;BME280;9688;51.906;8.376;2024-02-26T06:05:36;99300.06;;;7.35;92.58
19112;BME280;9688;51.906;8.376;2024-02-26T06:08:21;99302.72;;;7.35;92.51
19112;BME280;9688;51.906;8.376;2024-02-26T06:11:07;99315.72;;;7.38;92.75
19112;BME280;9688;51.906;8.376;2024-02-26T06:13:54;99306.53;;;7.28;92.70
19112;BME280;9688;51.906;8.376;2024-02-26T06:16:39;99306.97;;;7.19;92.96
19112;BME280;9688;51.906;8.376;2024-02-26T06:19:24;99303.69;;;7.14;93.27
19112;BME280;9688;51.906;8.376;2024-02-26T06:22:10;99304.53;;;7.14;93.34
19112;BME280;9688;51.906;8.376;2024-02-26T06:24:55;99305.31;;;7.17;93.23
19112;BME280;9688;51.906;8.376;2024-02-26T06:27:40;99301.16;;;7.12;93.18
19112;BME280;9688;51.906;8.376;2024-02-26T06:30:27;99301.25;;;7.09;93.69
19112;BME280;9688;51.906;8.376;2024-02-26T06:33:13;99310.03;;;7.10;93.25
19112;BME280;9688;51.906;8.376;2024-02-26T06:35:59;99303.00;;;7.10;93.82
19112;BME280;9688;51.906;8.376;2024-02-26T06:38:44;99310.16;;;7.07;93.82
19112;BME280;9688;51.906;8.376;2024-02-26T06:41:29;99304.16;;;7.03;94.04
19112;BME280;9688;51.906;8.376;2024-02-26T06:44:15;99301.69;;;7.00;94.41
19112;BME280;9688;51.906;8.376;2024-02-26T06:47:01;99296.66;;;6.96;94.86
19112;BME280;9688;51.906;8.376;2024-02-26T06:49:48;99307.41;;;6.89;94.82
19112;BME280;9688;51.906;8.376;2024-02-26T06:52:33;99311.91;;;6.87;95.21
19112;BME280;9688;51.906;8.376;2024-02-26T06:55:18;99311.97;;;6.86;95.64
19112;BME280;9688;51.906;8.376;2024-02-26T06:58:04;99321.47;;;6.88;95.38
19112;BME280;9688;51.906;8.376;2024-02-26T07:00:49;99332.78;;;6.90;95.29
19112;BME280;9688;51.906;8.376;2024-02-26T07:03:36;99327.41;;;6.93;95.14
19112;BME280;9688;51.906;8.376;2024-02-26T07:06:21;99321.06;;;6.98;95.44
19112;BME280;9688;51.906;8.376;2024-02-26T07:09:06;99321.81;;;7.01;95.38
19112;BME280;9688;51.906;8.376;2024-02-26T07:11:52;99326.91;;;7.04;95.27
19112;BME280;9688;51.906;8.376;2024-02-26T07:14:39;99338.13;;;7.08;94.99
19112;BME280;9688;51.906;8.376;2024-02-26T07:17:25;99339.69;;;7.12;95.27
19112;BME280;9688;51.906;8.376;2024-02-26T07:20:12;99327.00;;;7.22;94.65
19112;BME280;9688;51.906;8.376;2024-02-26T07:22:58;99337.22;;;7.28;94.58
19112;BME280;9688;51.906;8.376;2024-02-26T07:25:44;99348.34;;;7.34;94.74
19112;BME280;9688;51.906;8.376;2024-02-26T07:28:30;99341.00;;;7.41;94.34
19112;BME280;9688;51.906;8.376;2024-02-26T07:31:17;99342.50;;;7.47;94.25
19112;BME280;9688;51.906;8.376;2024-02-26T07:34:03;99342.16;;;7.54;94.37
19112;BME280;9688;51.906;8.376;2024-02-26T07:36:49;99355.84;;;7.61;93.86
19112;BME280;9688;51.906;8.376;2024-02-26T07:39:35;99350.28;;;7.67;93.71
19112;BME280;9688;51.906;8.376;2024-02-26T07:42:20;99353.72;;;7.69;93.69
19112;BME280;9688;51.906;8.376;2024-02-26T07:45:06;99361.47;;;7.72;93.57
19112;BME280;9688;51.906;8.376;2024-02-26T07:47:53;99364.72;;;7.77;93.34
19112;BME280;9688;51.906;8.376;2024-02-26T07:50:38;99364.59;;;7.80;92.99
19112;BME280;9688;51.906;8.376;2024-02-26T07:53:25;99363.53;;;7.85;93.34
19112;BME280;9688;51.906;8.376;2024-02-26T07:56:11;99383.50;;;7.89;92.66
19112;BME280;9688;51.906;8.376;2024-02-26T07:58:56;99391.09;;;7.95;92.30
19112;BME280;9688;51.906;8.376;2024-02-26T08:01:41;99387.31;;;8.00;92.44
19112;BME280;9688;51.906;8.376;2024-02-26T08:04:27;99387.94;;;8.05;91.99
19112;BME280;9688;51.906;8.376;2024-02-26T08:07:12;99400.75;;;8.13;91.47
19112;BME280;9688;51.906;8.376;2024-02-26T08:09:59;99394.19;;;8.22;91.52
19112;BME280;9688;51.906;8.376;2024-02-26T08:12:44;99408.91;;;8.26;91.04
19112;BME280;9688;51.906;8.376;2024-02-26T08:15:30;99406.28;;;8.26;90.85
19112;BME280;9688;51.906;8.376;2024-02-26T08:18:15;99411.25;;;8.32;91.00
19112;BME280;9688;51.906;8.376;2024-02-26T08:21:01;99411.75;;;8.40;90.71
19112;BME280;9688;51.906;8.376;2024-02-26T08:23:47;99411.38;;;8.48;90.01
19112;BME280;9688;51.906;8.376;2024-02-26T08:26:34;99428.50;;;8.57;89.91
19112;BME280;9688;51.906;8.376;2024-02-26T08:29:19;99425.47;;;8.64;89.57
19112;BME280;9688;51.906;8.376;2024-02-26T08:32:05;99430.47;;;8.70;89.51
19112;BME280;9688;51.906;8.376;2024-02-26T08:34:51;99428.41;;;8.76;89.67
19112;BME280;9688;51.906;8.376;2024-02-26T08:37:36;99436.09;;;8.80;88.74
19112;BME280;9688;51.906;8.376;2024-02-26T08:40:21;99436.03;;;8.82;88.40
19112;BME280;9688;51.906;8.376;2024-02-26T08:43:08;99436.66;;;8.87;88.23
19112;BME280;9688;51.906;8.376;2024-02-26T08:45:53;99439.84;;;8.93;88.29
19112;BME280;9688;51.906;8.376;2024-02-26T08:48:40;99438.72;;;8.98;87.94
19112;BME280;9688;51.906;8.376;2024-02-26T08:51:25;99441.06;;;9.04;88.45
19112;BME280;9688;51.906;8.376;2024-02-26T08:54:11;99449.66;;;9.07;87.91
19112;BME280;9688;51.906;8.376;2024-02-26T08:56:58;99452.22;;;9.09;87.86
19112;BME280;9688;51.906;8.376;2024-02-26T08:59:45;99444.31;;;9.09;87.38
19112;BME280;9688;51.906;8.376;2024-02-26T09:02:30;99450.28;;;9.12;87.01
19112;BME280;9688;51.906;8.376;2024-02-26T09:05:16;99454.47;;;9.16;87.35
19112;BME280;9688;51.906;8.376;2024-02-26T09:08:02;99458.66;;;9.21;87.22
19112;BME280;9688;51.906;8.376;2024-02-26T09:10:47;99460.28;;;9.23;87.16
19112;BME280;9688;51.906;8.376;2024-02-26T09:13:32;99459.97;;;9.29;87.17
19112;BME280;9688;51.906;8.376;2024-02-26T09:16:19;99458.19;;;9.30;87.61
19112;BME280;9688;51.906;8.376;2024-02-26T09:19:04;99458.78;;;9.35;87.12
19112;BME280;9688;51.906;8.376;2024-02-26T09:21:49;99456.06;;;9.36;86.97
19112;BME280;9688;51.906;8.376;2024-02-26T09:24:37;99446.28;;;9.38;87.69
19112;BME280;9688;51.906;8.376;2024-02-26T09:27:22;99453.19;;;9.41;86.86
19112;BME280;9688;51.906;8.376;2024-02-26T09:30:09;99453.81;;;9.46;87.10
19112;BME280;9688;51.906;8.376;2024-02-26T09:32:56;99454.25;;;9.54;86.54
19112;BME280;9688;51.906;8.376;2024-02-26T09:35:41;99455.09;;;9.55;87.01
19112;BME280;9688;51.906;8.376;2024-02-26T09:38:26;99460.03;;;9.61;86.40
19112;BME280;9688;51.906;8.376;2024-02-26T09:41:14;99457.09;;;9.67;86.39
19112;BME280;9688;51.906;8.376;2024-02-26T09:44:02;99461.28;;;9.71;86.36
19112;BME280;9688;51.906;8.376;2024-02-26T09:46:49;99466.16;;;9.79;86.78
19112;BME280;9688;51.906;8.376;2024-02-26T09:49:38;99466.47;;;9.73;87.35
19112;BME280;9688;51.906;8.376;2024-02-26T09:52:25;99465.44;;;9.75;86.41
19112;BME280;9688;51.906;8.376;2024-02-26T09:55:12;99468.16;;;9.74;86.80
19112;BME280;9688;51.906;8.376;2024-02-26T09:57:58;99474.69;;;9.67;88.08
19112;BME280;9688;51.906;8.376;2024-02-26T10:00:47;99481.81;;;9.82;87.30
19112;BME280;9688;51.906;8.376;2024-02-26T10:03:38;99488.75;;;10.00;87.52
19112;BME280;9688;51.906;8.376;2024-02-26T10:06:26;99484.81;;;10.08;86.82
19112;BME280;9688;51.906;8.376;2024-02-26T10:09:12;99488.25;;;10.10;86.88
19112;BME280;9688;51.906;8.376;2024-02-26T10:12:01;99475.81;;;10.12;86.78
19112;BME280;9688;51.906;8.376;2024-02-26T10:14:46;99484.75;;;10.09;85.80
19112;BME280;9688;51.906;8.376;2024-02-26T10:17:32;99484.03;;;10.05;87.13
19112;BME280;9688;51.906;8.376;2024-02-26T10:20:19;99486.69;;;10.05;86.22
19112;BME280;9688;51.906;8.376;2024-02-26T10:23:07;99489.75;;;9.98;86.49
19112;BME280;9688;51.906;8.376;2024-02-26T10:25:53;99494.53;;;10.07;86.80
19112;BME280;9688;51.906;8.376;2024-02-26T10:28:39;99499.03;;;10.05;86.28
19112;BME280;9688;51.906;8.376;2024-02-26T10:31:25;99491.22;;;10.03;86.91
19112;BME280;9688;51.906;8.376;2024-02-26T10:34:10;99502.53;;;10.05;86.33
19112;BME280;9688;51.906;8.376;2024-02-26T10:36:57;99510.78;;;9.99;87.06
19112;BME280;9688;51.906;8.376;2024-02-26T10:39:47;99508.66;;;9.90;86.36
19112;BME280;9688;51.906;8.376;2024-02-26T10:42:33;99508.09;;;9.83;87.34
19112;BME280;9688;51.906;8.376;2024-02-26T10:45:19;99508.28;;;9.80;87.67
19112;BME280;9688;51.906;8.376;2024-02-26T10:48:09;99521.56;;;9.79;87.62
19112;BME280;9688;51.906;8.376;2024-02-26T10:50:57;99522.41;;;9.79;87.27
19112;BME280;9688;51.906;8.376;2024-02-26T10:53:44;99526.69;;;9.82;87.58
19112;BME280;9688;51.906;8.376;2024-02-26T10:56:34;99535.53;;;9.81;87.22
19112;BME280;9688;51.906;8.376;2024-02-26T10:59:22;99532.91;;;9.81;86.78
19112;BME280;9688;51.906;8.376;2024-02-26T11:02:08;99532.91;;;9.81;87.15
19112;BME280;9688;51.906;8.376;2024-02-26T11:04:55;99535.22;;;9.87;86.00
19112;BME280;9688;51.906;8.376;2024-02-26T11:07:41;99540.00;;;9.96;86.79
19112;BME280;9688;51.906;8.376;2024-02-26T11:10:29;99534.38;;;10.02;85.75
19112;BME280;9688;51.906;8.376;2024-02-26T11:13:18;99543.59;;;10.11;85.96
19112;BME280;9688;51.906;8.376;2024-02-26T11:16:04;99532.97;;;10.13;85.11
19112;BME280;9688;51.906;8.376;2024-02-26T11:18:52;99544.28;;;10.15;85.46
19112;BME280;9688;51.906;8.376;2024-02-26T11:21:39;99539.22;;;10.27;85.30
19112;BME280;9688;51.906;8.376;2024-02-26T11:24:27;99544.25;;;10.32;84.46
19112;BME280;9688;51.906;8.376;2024-02-26T11:27:13;99553.34;;;10.26;85.33
19112;BME280;9688;51.906;8.376;2024-02-26T11:30:03;99550.09;;;10.21;85.10
19112;BME280;9688;51.906;8.376;2024-02-26T11:32:50;99558.63;;;10.26;84.72
19112;BME280;9688;51.906;8.376;2024-02-26T11:35:36;99557.69;;;10.27;85.12
19112;BME280;9688;51.906;8.376;2024-02-26T11:38:24;99548.34;;;10.38;85.14
19112;BME280;9688;51.906;8.376;2024-02-26T11:41:11;99559.44;;;10.29;85.21
19112;BME280;9688;51.906;8.376;2024-02-26T11:43:58;99556.56;;;10.16;86.31
19112;BME280;9688;51.906;8.376;2024-02-26T11:46:46;99543.75;;;10.08;85.54
19112;BME280;9688;51.906;8.376;2024-02-26T11:49:32;99537.72;;;10.06;85.62
19112;BME280;9688;51.906;8.376;2024-02-26T11:52:19;99536.84;;;10.05;86.58
19112;BME280;9688;51.906;8.376;2024-02-26T11:55:06;99537.38;;;10.12;86.00
19112;BME280;9688;51.906;8.376;2024-02-26T11:57:53;99549.31;;;10.19;86.74
19112;BME280;9688;51.906;8.376;2024-02-26T12:00:40;99559.88;;;10.19;86.50
19112;BME280;9688;51.906;8.376;2024-02-26T12:03:28;99547.44;;;10.21;87.06
19112;BME280;9688;51.906;8.376;2024-02-26T12:06:16;99563.28;;;10.21;86.83
19112;BME280;9688;51.906;8.376;2024-02-26T12:09:02;99560.75;;;10.20;86.35
19112;BME280;9688;51.906;8.376;2024-02-26T12:11:48;99562.63;;;10.18;86.99
19112;BME280;9688;51.906;8.376;2024-02-26T12:14:35;99566.16;;;10.17;87.13
19112;BME280;9688;51.906;8.376;2024-02-26T12:17:25;99557.34;;;10.18;87.57
19112;BME280;9688;51.906;8.376;2024-02-26T12:20:14;99560.81;;;10.18;87.60
19112;BME280;9688;51.906;8.376;2024-02-26T12:23:02;99556.16;;;10.23;87.18
19112;BME280;9688;51.906;8.376;2024-02-26T12:25:48;99564.13;;;10.22;87.33
19112;BME280;9688;51.906;8.376;2024-02-26T12:28:34;99564.25;;;10.20;88.15
19112;BME280;9688;51.906;8.376;2024-02-26T12:31:22;99576.66;;;10.18;88.52
19112;BME280;9688;51.906;8.376;2024-02-26T12:34:08;99563.78;;;10.12;88.02
19112;BME280;9688;51.906;8.376;2024-02-26T12:36:56;99562.84;;;10.13;88.64
19112;BME280;9688;51.906;8.376;2024-02-26T12:39:42;99567.22;;;10.14;88.53
19112;BME280;9688;51.906;8.376;2024-02-26T12:42:28;99573.84;;;10.21;88.16
19112;BME280;9688;51.906;8.376;2024-02-26T12:45:16;99576.19;;;10.27;87.30
19112;BME280;9688;51.906;8.376;2024-02-26T12:48:01;99576.97;;;10.30;87.31
19112;BME280;9688;51.906;8.376;2024-02-26T12:50:47;99576.91;;;10.31;87.86
19112;BME280;9688;51.906;8.376;2024-02-26T12:53:34;99584.91;;;10.30;87.62
19112;BME280;9688;51.906;8.376;2024-02-26T12:56:21;99581.16;;;10.34;86.65
19112;BME280;9688;51.906;8.376;2024-02-26T12:59:07;99590.09;;;10.31;86.32
19112;BME280;9688;51.906;8.376;2024-02-26T13:01:54;99592.97;;;10.26;87.48
19112;BME280;9688;51.906;8.376;2024-02-26T13:04:39;99590.72;;;10.19;87.21
19112;BME280;9688;51.906;8.376;2024-02-26T13:07:25;99598.97;;;10.13;87.15
19112;BME280;9688;51.906;8.376;2024-02-26T13:10:12;99597.75;;;10.02;87.61
19112;BME280;9688;51.906;8.376;2024-02-26T13:13:02;99607.84;;;9.94;87.57
19112;BME280;9688;51.906;8.376;2024-02-26T13:15:47;99609.28;;;9.84;87.96
19112;BME280;9688;51.906;8.376;2024-02-26T13:18:33;99611.31;;;9.79;87.46
19112;BME280;9688;51.906;8.376;2024-02-26T13:21:20;99617.50;;;9.78;87.08
19112;BME280;9688;51.906;8.376;2024-02-26T13:24:06;99615.88;;;9.75;87.40
19112;BME280;9688;51.906;8.376;2024-02-26T13:26:56;99609.91;;;9.72;87.19
19112;BME280;9688;51.906;8.376;2024-02-26T13:29:42;99617.19;;;9.67;87.79
19112;BME280;9688;51.906;8.376;2024-02-26T13:32:28;99624.03;;;9.71;87.69
19112;BME280;9688;51.906;8.376;2024-02-26T13:35:15;99615.81;;;9.77;87.02
19112;BME280;9688;51.906;8.376;2024-02-26T13:38:00;99616.75;;;9.76;86.45
19112;BME280;9688;51.906;8.376;2024-02-26T13:40:46;99628.50;;;9.86;86.83
19112;BME280;9688;51.906;8.376;2024-02-26T13:43:34;99639.63;;;9.93;86.41
19112;BME280;9688;51.906;8.376;2024-02-26T13:46:19;99654.53;;;9.94;85.34
19112;BME280;9688;51.906;8.376;2024-02-26T13:49:08;99647.00;;;9.86;85.46
19112;BME280;9688;51.906;8.376;2024-02-26T13:51:54;99654.69;;;9.73;86.51
19112;BME280;9688;51.906;8.376;2024-02-26T13:54:39;99657.56;;;9.69;86.21
19112;BME280;9688;51.906;8.376;2024-02-26T13:57:24;99657.78;;;9.64;86.18
19112;BME280;9688;51.906;8.376;2024-02-26T14:00:13;99671.22;;;9.59;86.31
19112;BME280;9688;51.906;8.376;2024-02-26T14:02:58;99659.25;;;9.52;85.88
19112;BME280;9688;51.906;8.376;2024-02-26T14:05:44;99660.34;;;9.48;86.51
19112;BME280;9688;51.906;8.376;2024-02-26T14:08:30;99677.81;;;9.51;86.15
19112;BME280;9688;51.906;8.376;2024-02-26T14:11:15;99673.91;;;9.58;85.92
19112;BME280;9688;51.906;8.376;2024-02-26T14:14:01;99674.63;;;9.61;86.01
19112;BME280;9688;51.906;8.376;2024-02-26T14:16:47;99686.97;;;9.61;86.04
19112;BME280;9688;51.906;8.376;2024-02-26T14:19:35;99693.03;;;9.63;85.69
19112;BME280;9688;51.906;8.376;2024-02-26T14:22:22;99697.47;;;9.63;86.61
19112;BME280;9688;51.906;8.376;2024-02-26T14:25:08;99699.25;;;9.62;87.00
19112;BME280;9688;51.906;8.376;2024-02-26T14:27:55;99687.91;;;9.60;86.86
19112;BME280;9688;51.906;8.376;2024-02-26T14:30:41;99705.38;;;9.63;87.39
19112;BME280;9688;51.906;8.376;2024-02-26T14:33:29;99698.31;;;9.63;87.57
19112;BME280;9688;51.906;8.376;2024-02-26T14:36:15;99696.59;;;9.62;87.26
19112;BME280;9688;51.906;8.376;2024-02-26T14:39:00;99700.56;;;9.53;87.10
19112;BME280;9688;51.906;8.376;2024-02-26T14:41:47;99694.72;;;9.47;87.46
19112;BME280;9688;51.906;8.376;2024-02-26T14:44:33;99701.06;;;9.43;88.58
19112;BME280;9688;51.906;8.376;2024-02-26T14:47:18;99713.53;;;9.39;89.02
19112;BME280;9688;51.906;8.376;2024-02-26T14:50:06;99721.59;;;9.36;88.79
19112;BME280;9688;51.906;8.376;2024-02-26T14:52:52;99719.59;;;9.41;89.36
19112;BME280;9688;51.906;8.376;2024-02-26T14:55:37;99723.03;;;9.43;89.42
19112;BME280;9688;51.906;8.376;2024-02-26T14:58:22;99729.16;;;9.44;88.76